sensor_id;sensor_type;location;lat;lon;timestamp;P1;durP1;ratioP1;P2;durP2;ratioP2
28629;SDS011;15817;42.130;24.762;2024-01-06T00:02:00;54.47;;;36.60;;
28629;SDS011;15817;42.130;24.762;2024-01-06T00:04:27;49.42;;;32.80;;
28629;SDS011;15817;42.130;24.762;2024-01-06T00:06:53;46.30;;;29.98;;
28629;SDS011;15817;42.130;24.762;2024-01-06T00:09:19;59.90;;;38.22;;
28629;SDS011;15817;42.130;24.762;2024-01-06T00:11:44;70.90;;;48.20;;
28629;SDS011;15817;42.130;24.762;2024-01-06T00:14:10;82.38;;;54.80;;
28629;SDS011;15817;42.130;24.762;2024-01-06T00:16:36;82.53;;;59.13;;
28629;SDS011;15817;42.130;24.762;2024-01-06T00:19:01;89.10;;;61.75;;
28629;SDS011;15817;42.130;24.762;2024-01-06T00:21:30;73.13;;;51.72;;
28629;SDS011;15817;42.130;24.762;2024-01-06T00:23:59;60.03;;;38.72;;
28629;SDS011;15817;42.130;24.762;2024-01-06T00:26:25;57.33;;;35.95;;
28629;SDS011;15817;42.130;24.762;2024-01-06T00:28:51;53.00;;;36.90;;
28629;SDS011;15817;42.130;24.762;2024-01-06T00:31:17;54.67;;;36.20;;
28629;SDS011;15817;42.130;24.762;2024-01-06T00:33:43;47.83;;;32.97;;
28629;SDS011;15817;42.130;24.762;2024-01-06T00:36:09;50.83;;;34.28;;
28629;SDS011;15817;42.130;24.762;2024-01-06T00:38:35;45.17;;;31.33;;
28629;SDS011;15817;42.130;24.762;2024-01-06T00:41:01;49.08;;;33.20;;
28629;SDS011;15817;42.130;24.762;2024-01-06T00:43:30;52.63;;;32.95;;
28629;SDS011;15817;42.130;24.762;2024-01-06T00:45:55;50.70;;;33.10;;
28629;SDS011;15817;42.130;24.762;2024-01-06T00:48:26;48.53;;;32.53;;
28629;SDS011;15817;42.130;24.762;2024-01-06T00:50:57;46.35;;;32.03;;
28629;SDS011;15817;42.130;24.762;2024-01-06T00:53:23;56.90;;;32.70;;
28629;SDS011;15817;42.130;24.762;2024-01-06T00:55:52;55.65;;;32.05;;
28629;SDS011;15817;42.130;24.762;2024-01-06T00:58:21;53.67;;;31.70;;
28629;SDS011;15817;42.130;24.762;2024-01-06T01:00:47;56.22;;;33.42;;
28629;SDS011;15817;42.130;24.762;2024-01-06T01:03:15;51.22;;;32.35;;
28629;SDS011;15817;42.130;24.762;2024-01-06T01:05:41;51.10;;;32.38;;
28629;SDS011;15817;42.130;24.762;2024-01-06T01:08:07;45.75;;;29.80;;
28629;SDS011;15817;42.130;24.762;2024-01-06T01:10:33;46.70;;;30.17;;
28629;SDS011;15817;42.130;24.762;2024-01-06T01:12:58;49.03;;;31.45;;
28629;SDS011;15817;42.130;24.762;2024-01-06T01:15:26;44.05;;;29.33;;
28629;SDS011;15817;42.130;24.762;2024-01-06T01:17:52;45.00;;;28.85;;
28629;SDS011;15817;42.130;24.762;2024-01-06T01:20:18;44.33;;;28.88;;
28629;SDS011;15817;42.130;24.762;2024-01-06T01:22:44;44.60;;;28.17;;
28629;SDS011;15817;42.130;24.762;2024-01-06T01:25:10;49.67;;;29.95;;
28629;SDS011;15817;42.130;24.762;2024-01-06T01:27:37;42.78;;;28.33;;
28629;SDS011;15817;42.130;24.762;2024-01-06T01:30:03;46.78;;;29.48;;
28629;SDS011;15817;42.130;24.762;2024-01-06T01:32:29;44.08;;;28.15;;
28629;SDS011;15817;42.130;24.762;2024-01-06T01:34:55;46.78;;;30.45;;
28629;SDS011;15817;42.130;24.762;2024-01-06T01:37:21;48.88;;;29.75;;
28629;SDS011;15817;42.130;24.762;2024-01-06T01:39:47;44.40;;;29.42;;
28629;SDS011;15817;42.130;24.762;2024-01-06T01:42:15;45.38;;;31.15;;
28629;SDS011;15817;42.130;24.762;2024-01-06T01:44:40;50.85;;;29.77;;
28629;SDS011;15817;42.130;24.762;2024-01-06T01:47:06;47.88;;;29.80;;
28629;SDS011;15817;42.130;24.762;2024-01-06T01:49:32;48.58;;;31.48;;
28629;SDS011;15817;42.130;24.762;2024-01-06T01:51:58;52.60;;;31.17;;
28629;SDS011;15817;42.130;24.762;2024-01-06T01:54:25;50.92;;;32.00;;
28629;SDS011;15817;42.130;24.762;2024-01-06T01:56:51;50.60;;;31.63;;
28629;SDS011;15817;42.130;24.762;2024-01-06T01:59:20;47.88;;;29.80;;
28629;SDS011;15817;42.130;24.762;2024-01-06T02:01:46;49.30;;;30.15;;
28629;SDS011;15817;42.130;24.762;2024-01-06T02:04:12;46.47;;;29.85;;
28629;SDS011;15817;42.130;24.762;2024-01-06T02:06:38;46.65;;;29.63;;
28629;SDS011;15817;42.130;24.762;2024-01-06T02:09:04;39.78;;;26.67;;
28629;SDS011;15817;42.130;24.762;2024-01-06T02:11:30;45.58;;;28.77;;
28629;SDS011;15817;42.130;24.762;2024-01-06T02:13:56;40.42;;;26.95;;
28629;SDS011;15817;42.130;24.762;2024-01-06T02:16:22;41.42;;;26.70;;
28629;SDS011;15817;42.130;24.762;2024-01-06T02:18:51;40.20;;;26.02;;
28629;SDS011;15817;42.130;24.762;2024-01-06T02:21:17;41.85;;;26.92;;
28629;SDS011;15817;42.130;24.762;2024-01-06T02:23:46;36.97;;;24.25;;
28629;SDS011;15817;42.130;24.762;2024-01-06T02:26:16;40.78;;;24.85;;
28629;SDS011;15817;42.130;24.762;2024-01-06T02:28:42;46.83;;;24.80;;
28629;SDS011;15817;42.130;24.762;2024-01-06T02:31:13;37.63;;;23.20;;
28629;SDS011;15817;42.130;24.762;2024-01-06T02:33:39;37.08;;;22.90;;
28629;SDS011;15817;42.130;24.762;2024-01-06T02:36:05;35.58;;;23.27;;
28629;SDS011;15817;42.130;24.762;2024-01-06T02:38:31;33.13;;;22.65;;
28629;SDS011;15817;42.130;24.762;2024-01-06T02:40:59;33.33;;;20.83;;
28629;SDS011;15817;42.130;24.762;2024-01-06T02:43:24;35.35;;;22.02;;
28629;SDS011;15817;42.130;24.762;2024-01-06T02:45:50;28.85;;;19.38;;
28629;SDS011;15817;42.130;24.762;2024-01-06T02:48:16;28.90;;;18.73;;
28629;SDS011;15817;42.130;24.762;2024-01-06T02:50:42;31.88;;;19.83;;
28629;SDS011;15817;42.130;24.762;2024-01-06T02:53:08;26.70;;;17.58;;
28629;SDS011;15817;42.130;24.762;2024-01-06T02:55:35;24.55;;;16.48;;
28629;SDS011;15817;42.130;24.762;2024-01-06T02:58:00;27.33;;;15.98;;
28629;SDS011;15817;42.130;24.762;2024-01-06T03:00:26;28.08;;;16.85;;
28629;SDS011;15817;42.130;24.762;2024-01-06T03:02:52;26.55;;;15.88;;
28629;SDS011;15817;42.130;24.762;2024-01-06T03:05:18;28.13;;;16.38;;
28629;SDS011;15817;42.130;24.762;2024-01-06T03:07:46;28.63;;;16.23;;
28629;SDS011;15817;42.130;24.762;2024-01-06T03:10:12;24.08;;;15.18;;
28629;SDS011;15817;42.130;24.762;2024-01-06T03:12:37;28.88;;;16.30;;
28629;SDS011;15817;42.130;24.762;2024-01-06T03:15:03;25.00;;;16.05;;
28629;SDS011;15817;42.130;24.762;2024-01-06T03:17:32;29.02;;;15.55;;
28629;SDS011;15817;42.130;24.762;2024-01-06T03:19:58;27.40;;;16.08;;
28629;SDS011;15817;42.130;24.762;2024-01-06T03:22:23;24.85;;;15.85;;
28629;SDS011;15817;42.130;24.762;2024-01-06T03:24:49;25.92;;;15.85;;
28629;SDS011;15817;42.130;24.762;2024-01-06T03:27:15;28.73;;;16.58;;
28629;SDS011;15817;42.130;24.762;2024-01-06T03:29:41;29.33;;;16.52;;
28629;SDS011;15817;42.130;24.762;2024-01-06T03:32:07;34.45;;;16.38;;
28629;SDS011;15817;42.130;24.762;2024-01-06T03:34:33;26.40;;;16.45;;
28629;SDS011;15817;42.130;24.762;2024-01-06T03:36:59;26.25;;;15.35;;
28629;SDS011;15817;42.130;24.762;2024-01-06T03:39:24;25.25;;;16.10;;
28629;SDS011;15817;42.130;24.762;2024-01-06T03:41:50;25.40;;;16.15;;
28629;SDS011;15817;42.130;24.762;2024-01-06T03:44:16;26.70;;;16.15;;
28629;SDS011;15817;42.130;24.762;2024-01-06T03:46:42;29.17;;;14.98;;
28629;SDS011;15817;42.130;24.762;2024-01-06T03:49:08;25.30;;;14.10;;
28629;SDS011;15817;42.130;24.762;2024-01-06T03:51:33;20.83;;;12.75;;
28629;SDS011;15817;42.130;24.762;2024-01-06T03:53:59;26.67;;;14.65;;
28629;SDS011;15817;42.130;24.762;2024-01-06T03:56:25;24.95;;;13.27;;
28629;SDS011;15817;42.130;24.762;2024-01-06T03:58:51;25.55;;;14.00;;
28629;SDS011;15817;42.130;24.762;2024-01-06T04:01:16;24.92;;;13.20;;
28629;SDS011;15817;42.130;24.762;2024-01-06T04:03:42;23.73;;;14.15;;
28629;SDS011;15817;42.130;24.762;2024-01-06T04:06:08;32.67;;;15.02;;
28629;SDS011;15817;42.130;24.762;2024-01-06T04:08:35;26.85;;;14.27;;
28629;SDS011;15817;42.130;24.762;2024-01-06T04:11:01;24.08;;;13.05;;
28629;SDS011;15817;42.130;24.762;2024-01-06T04:13:27;22.17;;;13.85;;
28629;SDS011;15817;42.130;24.762;2024-01-06T04:15:53;20.65;;;13.45;;
28629;SDS011;15817;42.130;24.762;2024-01-06T04:18:19;21.95;;;13.48;;
28629;SDS011;15817;42.130;24.762;2024-01-06T04:20:45;23.15;;;13.77;;
28629;SDS011;15817;42.130;24.762;2024-01-06T04:23:11;27.55;;;14.52;;
28629;SDS011;15817;42.130;24.762;2024-01-06T04:25:36;26.38;;;14.32;;
28629;SDS011;15817;42.130;24.762;2024-01-06T04:28:02;23.88;;;13.63;;
28629;SDS011;15817;42.130;24.762;2024-01-06T04:30:28;26.10;;;16.15;;
28629;SDS011;15817;42.130;24.762;2024-01-06T04:32:54;32.35;;;16.13;;
28629;SDS011;15817;42.130;24.762;2024-01-06T04:35:20;26.65;;;16.05;;
28629;SDS011;15817;42.130;24.762;2024-01-06T04:37:46;26.48;;;16.33;;
28629;SDS011;15817;42.130;24.762;2024-01-06T04:40:12;26.65;;;16.92;;
28629;SDS011;15817;42.130;24.762;2024-01-06T04:42:38;23.75;;;14.30;;
28629;SDS011;15817;42.130;24.762;2024-01-06T04:45:07;25.35;;;15.82;;
28629;SDS011;15817;42.130;24.762;2024-01-06T04:47:36;25.48;;;15.90;;
28629;SDS011;15817;42.130;24.762;2024-01-06T04:50:02;25.70;;;15.43;;
28629;SDS011;15817;42.130;24.762;2024-01-06T04:52:30;25.67;;;15.30;;
28629;SDS011;15817;42.130;24.762;2024-01-06T04:54:59;21.73;;;14.13;;
28629;SDS011;15817;42.130;24.762;2024-01-06T04:57:26;24.90;;;13.48;;
28629;SDS011;15817;42.130;24.762;2024-01-06T04:59:52;21.83;;;12.95;;
28629;SDS011;15817;42.130;24.762;2024-01-06T05:02:18;17.58;;;12.15;;
28629;SDS011;15817;42.130;24.762;2024-01-06T05:04:47;25.45;;;12.98;;
28629;SDS011;15817;42.130;24.762;2024-01-06T05:07:13;23.52;;;12.20;;
28629;SDS011;15817;42.130;24.762;2024-01-06T05:09:38;21.23;;;12.82;;
28629;SDS011;15817;42.130;24.762;2024-01-06T05:12:07;18.17;;;11.20;;
28629;SDS011;15817;42.130;24.762;2024-01-06T05:14:41;19.00;;;11.63;;
28629;SDS011;15817;42.130;24.762;2024-01-06T05:17:09;21.58;;;11.77;;
28629;SDS011;15817;42.130;24.762;2024-01-06T05:19:35;18.88;;;11.90;;
28629;SDS011;15817;42.130;24.762;2024-01-06T05:22:01;17.13;;;11.95;;
28629;SDS011;15817;42.130;24.762;2024-01-06T05:24:30;21.52;;;12.40;;
28629;SDS011;15817;42.130;24.762;2024-01-06T05:26:56;19.83;;;12.65;;
28629;SDS011;15817;42.130;24.762;2024-01-06T05:29:24;26.70;;;12.45;;
28629;SDS011;15817;42.130;24.762;2024-01-06T05:31:51;23.33;;;13.40;;
28629;SDS011;15817;42.130;24.762;2024-01-06T05:34:17;18.88;;;11.85;;
28629;SDS011;15817;42.130;24.762;2024-01-06T05:36:43;21.13;;;12.35;;
28629;SDS011;15817;42.130;24.762;2024-01-06T05:39:09;23.27;;;11.93;;
28629;SDS011;15817;42.130;24.762;2024-01-06T05:41:38;18.50;;;11.75;;
28629;SDS011;15817;42.130;24.762;2024-01-06T05:44:05;28.77;;;12.63;;
28629;SDS011;15817;42.130;24.762;2024-01-06T05:46:31;17.85;;;11.13;;
28629;SDS011;15817;42.130;24.762;2024-01-06T05:48:57;21.88;;;11.13;;
28629;SDS011;15817;42.130;24.762;2024-01-06T05:51:23;23.63;;;11.43;;
28629;SDS011;15817;42.130;24.762;2024-01-06T05:53:48;21.80;;;11.27;;
28629;SDS011;15817;42.130;24.762;2024-01-06T05:56:26;22.13;;;11.13;;
28629;SDS011;15817;42.130;24.762;2024-01-06T05:58:53;17.58;;;10.45;;
28629;SDS011;15817;42.130;24.762;2024-01-06T06:01:19;17.30;;;10.60;;
28629;SDS011;15817;42.130;24.762;2024-01-06T06:03:50;31.80;;;12.35;;
28629;SDS011;15817;42.130;24.762;2024-01-06T06:06:16;24.88;;;11.38;;
28629;SDS011;15817;42.130;24.762;2024-01-06T06:08:45;18.50;;;10.82;;
28629;SDS011;15817;42.130;24.762;2024-01-06T06:11:11;17.77;;;10.20;;
28629;SDS011;15817;42.130;24.762;2024-01-06T06:13:38;16.58;;;10.23;;
28629;SDS011;15817;42.130;24.762;2024-01-06T06:16:08;18.13;;;10.82;;
28629;SDS011;15817;42.130;24.762;2024-01-06T06:18:35;20.17;;;10.70;;
28629;SDS011;15817;42.130;24.762;2024-01-06T06:21:00;18.23;;;10.95;;
28629;SDS011;15817;42.130;24.762;2024-01-06T06:23:32;22.40;;;10.35;;
28629;SDS011;15817;42.130;24.762;2024-01-06T06:25:58;19.50;;;11.13;;
28629;SDS011;15817;42.130;24.762;2024-01-06T06:28:25;32.08;;;11.25;;
28629;SDS011;15817;42.130;24.762;2024-01-06T06:30:51;29.85;;;11.25;;
28629;SDS011;15817;42.130;24.762;2024-01-06T06:33:17;29.77;;;12.32;;
28629;SDS011;15817;42.130;24.762;2024-01-06T06:35:43;30.35;;;12.18;;
28629;SDS011;15817;42.130;24.762;2024-01-06T06:38:09;22.85;;;11.40;;
28629;SDS011;15817;42.130;24.762;2024-01-06T06:40:34;25.50;;;11.70;;
28629;SDS011;15817;42.130;24.762;2024-01-06T06:43:00;21.13;;;10.77;;
28629;SDS011;15817;42.130;24.762;2024-01-06T06:45:29;21.67;;;11.40;;
28629;SDS011;15817;42.130;24.762;2024-01-06T06:47:56;17.65;;;11.25;;
28629;SDS011;15817;42.130;24.762;2024-01-06T06:50:25;17.58;;;10.77;;
28629;SDS011;15817;42.130;24.762;2024-01-06T06:52:51;16.80;;;10.80;;
28629;SDS011;15817;42.130;24.762;2024-01-06T06:55:18;23.75;;;11.68;;
28629;SDS011;15817;42.130;24.762;2024-01-06T06:57:44;23.20;;;12.75;;
28629;SDS011;15817;42.130;24.762;2024-01-06T07:00:11;22.80;;;12.68;;
28629;SDS011;15817;42.130;24.762;2024-01-06T07:02:37;17.83;;;10.95;;
28629;SDS011;15817;42.130;24.762;2024-01-06T07:05:03;25.38;;;12.32;;
28629;SDS011;15817;42.130;24.762;2024-01-06T07:07:32;19.02;;;12.70;;
28629;SDS011;15817;42.130;24.762;2024-01-06T07:10:00;20.55;;;12.68;;
28629;SDS011;15817;42.130;24.762;2024-01-06T07:12:29;20.73;;;12.50;;
28629;SDS011;15817;42.130;24.762;2024-01-06T07:14:55;21.42;;;12.73;;
28629;SDS011;15817;42.130;24.762;2024-01-06T07:17:23;23.88;;;13.80;;
28629;SDS011;15817;42.130;24.762;2024-01-06T07:19:53;31.02;;;16.27;;
28629;SDS011;15817;42.130;24.762;2024-01-06T07:22:19;27.08;;;16.40;;
28629;SDS011;15817;42.130;24.762;2024-01-06T07:24:45;28.05;;;16.08;;
28629;SDS011;15817;42.130;24.762;2024-01-06T07:27:17;25.30;;;15.48;;
28629;SDS011;15817;42.130;24.762;2024-01-06T07:29:52;31.50;;;15.82;;
28629;SDS011;15817;42.130;24.762;2024-01-06T07:32:25;25.35;;;14.63;;
28629;SDS011;15817;42.130;24.762;2024-01-06T07:35:02;30.10;;;15.80;;
28629;SDS011;15817;42.130;24.762;2024-01-06T07:37:31;23.95;;;13.80;;
28629;SDS011;15817;42.130;24.762;2024-01-06T07:40:05;26.23;;;15.93;;
28629;SDS011;15817;42.130;24.762;2024-01-06T07:42:50;33.85;;;18.23;;
28629;SDS011;15817;42.130;24.762;2024-01-06T07:45:27;36.08;;;18.63;;
28629;SDS011;15817;42.130;24.762;2024-01-06T07:47:53;34.83;;;17.95;;
28629;SDS011;15817;42.130;24.762;2024-01-06T07:50:28;36.63;;;17.23;;
28629;SDS011;15817;42.130;24.762;2024-01-06T07:53:01;31.98;;;17.65;;
28629;SDS011;15817;42.130;24.762;2024-01-06T07:55:45;29.15;;;16.92;;
28629;SDS011;15817;42.130;24.762;2024-01-06T08:01:05;40.15;;;19.75;;
28629;SDS011;15817;42.130;24.762;2024-01-06T08:03:36;34.13;;;17.92;;
28629;SDS011;15817;42.130;24.762;2024-01-06T08:06:07;37.00;;;17.10;;
28629;SDS011;15817;42.130;24.762;2024-01-06T08:08:48;29.05;;;17.52;;
28629;SDS011;15817;42.130;24.762;2024-01-06T08:11:16;28.80;;;17.75;;
28629;SDS011;15817;42.130;24.762;2024-01-06T08:13:44;28.15;;;17.15;;
28629;SDS011;15817;42.130;24.762;2024-01-06T08:16:15;36.97;;;18.58;;
28629;SDS011;15817;42.130;24.762;2024-01-06T08:19:26;31.17;;;18.70;;
28629;SDS011;15817;42.130;24.762;2024-01-06T08:22:02;34.33;;;19.38;;
28629;SDS011;15817;42.130;24.762;2024-01-06T08:24:33;32.35;;;19.25;;
28629;SDS011;15817;42.130;24.762;2024-01-06T08:27:02;33.72;;;20.40;;
28629;SDS011;15817;42.130;24.762;2024-01-06T08:29:39;36.10;;;21.00;;
28629;SDS011;15817;42.130;24.762;2024-01-06T08:32:13;37.42;;;21.88;;
28629;SDS011;15817;42.130;24.762;2024-01-06T08:35:08;41.65;;;22.95;;
28629;SDS011;15817;42.130;24.762;2024-01-06T08:37:34;40.08;;;25.27;;
28629;SDS011;15817;42.130;24.762;2024-01-06T08:40:00;40.25;;;24.88;;
28629;SDS011;15817;42.130;24.762;2024-01-06T08:42:29;37.08;;;23.50;;
28629;SDS011;15817;42.130;24.762;2024-01-06T08:45:02;48.25;;;26.85;;
28629;SDS011;15817;42.130;24.762;2024-01-06T08:47:28;39.92;;;25.27;;
28629;SDS011;15817;42.130;24.762;2024-01-06T08:49:56;42.30;;;24.60;;
28629;SDS011;15817;42.130;24.762;2024-01-06T08:52:25;41.28;;;23.63;;
28629;SDS011;15817;42.130;24.762;2024-01-06T08:54:56;37.78;;;22.92;;
28629;SDS011;15817;42.130;24.762;2024-01-06T08:57:22;39.47;;;23.40;;
28629;SDS011;15817;42.130;24.762;2024-01-06T08:59:48;36.25;;;23.33;;
28629;SDS011;15817;42.130;24.762;2024-01-06T09:02:13;46.83;;;25.05;;
28629;SDS011;15817;42.130;24.762;2024-01-06T09:04:39;41.22;;;24.25;;
28629;SDS011;15817;42.130;24.762;2024-01-06T09:07:05;41.25;;;25.17;;
28629;SDS011;15817;42.130;24.762;2024-01-06T09:09:34;39.65;;;24.88;;
28629;SDS011;15817;42.130;24.762;2024-01-06T09:12:02;43.75;;;25.00;;
28629;SDS011;15817;42.130;24.762;2024-01-06T09:14:29;46.15;;;24.80;;
28629;SDS011;15817;42.130;24.762;2024-01-06T09:17:00;40.15;;;23.85;;
28629;SDS011;15817;42.130;24.762;2024-01-06T09:19:26;38.33;;;23.27;;
28629;SDS011;15817;42.130;24.762;2024-01-06T09:21:53;40.22;;;24.67;;
28629;SDS011;15817;42.130;24.762;2024-01-06T09:24:22;37.03;;;23.90;;
28629;SDS011;15817;42.130;24.762;2024-01-06T09:26:52;40.50;;;23.88;;
28629;SDS011;15817;42.130;24.762;2024-01-06T09:29:19;42.67;;;23.60;;
28629;SDS011;15817;42.130;24.762;2024-01-06T09:31:44;34.67;;;23.33;;
28629;SDS011;15817;42.130;24.762;2024-01-06T09:34:10;42.05;;;23.65;;
28629;SDS011;15817;42.130;24.762;2024-01-06T09:36:39;36.97;;;23.38;;
28629;SDS011;15817;42.130;24.762;2024-01-06T09:39:15;35.22;;;21.92;;
28629;SDS011;15817;42.130;24.762;2024-01-06T09:41:41;43.05;;;22.70;;
28629;SDS011;15817;42.130;24.762;2024-01-06T09:44:07;39.72;;;23.20;;
28629;SDS011;15817;42.130;24.762;2024-01-06T09:46:33;39.08;;;21.98;;
28629;SDS011;15817;42.130;24.762;2024-01-06T09:49:01;38.20;;;21.40;;
28629;SDS011;15817;42.130;24.762;2024-01-06T09:51:27;34.53;;;21.88;;
28629;SDS011;15817;42.130;24.762;2024-01-06T09:56:24;40.67;;;21.98;;
28629;SDS011;15817;42.130;24.762;2024-01-06T09:58:54;41.10;;;21.95;;
28629;SDS011;15817;42.130;24.762;2024-01-06T10:01:23;41.30;;;23.88;;
28629;SDS011;15817;42.130;24.762;2024-01-06T10:03:49;37.03;;;22.75;;
28629;SDS011;15817;42.130;24.762;2024-01-06T10:06:15;42.35;;;23.58;;
28629;SDS011;15817;42.130;24.762;2024-01-06T10:08:49;49.28;;;24.77;;
28629;SDS011;15817;42.130;24.762;2024-01-06T10:11:18;42.97;;;24.08;;
28629;SDS011;15817;42.130;24.762;2024-01-06T10:13:50;42.45;;;23.73;;
28629;SDS011;15817;42.130;24.762;2024-01-06T10:16:17;39.75;;;23.15;;
28629;SDS011;15817;42.130;24.762;2024-01-06T10:18:44;43.47;;;23.45;;
28629;SDS011;15817;42.130;24.762;2024-01-06T10:21:10;42.88;;;23.05;;
28629;SDS011;15817;42.130;24.762;2024-01-06T10:23:39;40.17;;;23.05;;
28629;SDS011;15817;42.130;24.762;2024-01-06T10:26:08;42.70;;;22.50;;
28629;SDS011;15817;42.130;24.762;2024-01-06T10:28:38;38.70;;;22.23;;
28629;SDS011;15817;42.130;24.762;2024-01-06T10:31:07;42.28;;;22.80;;
28629;SDS011;15817;42.130;24.762;2024-01-06T10:33:34;41.67;;;23.85;;
28629;SDS011;15817;42.130;24.762;2024-01-06T10:36:01;51.33;;;22.75;;
28629;SDS011;15817;42.130;24.762;2024-01-06T10:38:29;42.05;;;23.55;;
28629;SDS011;15817;42.130;24.762;2024-01-06T10:41:02;41.47;;;23.70;;
28629;SDS011;15817;42.130;24.762;2024-01-06T10:43:35;45.53;;;24.17;;
28629;SDS011;15817;42.130;24.762;2024-01-06T10:46:03;47.50;;;25.20;;
28629;SDS011;15817;42.130;24.762;2024-01-06T10:48:34;38.92;;;23.33;;
28629;SDS011;15817;42.130;24.762;2024-01-06T10:51:01;46.33;;;24.08;;
28629;SDS011;15817;42.130;24.762;2024-01-06T10:53:27;42.88;;;24.33;;
28629;SDS011;15817;42.130;24.762;2024-01-06T10:55:55;49.75;;;23.30;;
28629;SDS011;15817;42.130;24.762;2024-01-06T10:58:23;39.17;;;23.42;;
28629;SDS011;15817;42.130;24.762;2024-01-06T11:00:54;36.20;;;21.73;;
28629;SDS011;15817;42.130;24.762;2024-01-06T11:03:24;39.53;;;22.08;;
28629;SDS011;15817;42.130;24.762;2024-01-06T11:05:52;38.50;;;20.40;;
28629;SDS011;15817;42.130;24.762;2024-01-06T11:08:18;36.22;;;19.73;;
28629;SDS011;15817;42.130;24.762;2024-01-06T11:10:45;33.47;;;18.33;;
28629;SDS011;15817;42.130;24.762;2024-01-06T11:13:12;24.92;;;15.65;;
28629;SDS011;15817;42.130;24.762;2024-01-06T11:18:33;27.30;;;14.10;;
28629;SDS011;15817;42.130;24.762;2024-01-06T11:21:21;23.15;;;14.73;;
28629;SDS011;15817;42.130;24.762;2024-01-06T11:26:45;22.13;;;14.00;;
28629;SDS011;15817;42.130;24.762;2024-01-06T11:29:15;25.83;;;15.93;;
28629;SDS011;15817;42.130;24.762;2024-01-06T11:31:42;20.58;;;14.85;;
28629;SDS011;15817;42.130;24.762;2024-01-06T11:34:16;22.52;;;15.07;;
28629;SDS011;15817;42.130;24.762;2024-01-06T11:36:44;21.55;;;15.15;;
28629;SDS011;15817;42.130;24.762;2024-01-06T11:42:08;21.80;;;13.70;;
28629;SDS011;15817;42.130;24.762;2024-01-06T11:44:49;22.42;;;14.32;;
28629;SDS011;15817;42.130;24.762;2024-01-06T11:47:18;19.83;;;14.55;;
28629;SDS011;15817;42.130;24.762;2024-01-06T11:49:48;23.25;;;14.80;;
28629;SDS011;15817;42.130;24.762;2024-01-06T11:52:39;18.35;;;14.45;;
28629;SDS011;15817;42.130;24.762;2024-01-06T11:55:07;31.85;;;15.65;;
28629;SDS011;15817;42.130;24.762;2024-01-06T11:57:34;27.67;;;17.05;;
28629;SDS011;15817;42.130;24.762;2024-01-06T12:00:00;28.42;;;18.05;;
28629;SDS011;15817;42.130;24.762;2024-01-06T12:02:32;25.60;;;17.45;;
28629;SDS011;15817;42.130;24.762;2024-01-06T12:05:01;24.67;;;17.15;;
28629;SDS011;15817;42.130;24.762;2024-01-06T12:07:32;28.23;;;18.02;;
28629;SDS011;15817;42.130;24.762;2024-01-06T12:10:03;28.90;;;19.05;;
28629;SDS011;15817;42.130;24.762;2024-01-06T12:12:37;30.35;;;19.27;;
28629;SDS011;15817;42.130;24.762;2024-01-06T12:15:09;33.13;;;20.88;;
28629;SDS011;15817;42.130;24.762;2024-01-06T12:17:46;31.40;;;17.83;;
28629;SDS011;15817;42.130;24.762;2024-01-06T12:20:46;27.75;;;17.52;;
28629;SDS011;15817;42.130;24.762;2024-01-06T12:24:17;29.83;;;17.67;;
28629;SDS011;15817;42.130;24.762;2024-01-06T12:26:56;25.90;;;17.88;;
28629;SDS011;15817;42.130;24.762;2024-01-06T12:29:49;25.33;;;18.00;;
28629;SDS011;15817;42.130;24.762;2024-01-06T12:32:18;28.00;;;18.80;;
28629;SDS011;15817;42.130;24.762;2024-01-06T12:34:53;25.88;;;18.25;;
28629;SDS011;15817;42.130;24.762;2024-01-06T12:37:22;26.20;;;18.50;;
28629;SDS011;15817;42.130;24.762;2024-01-06T12:39:51;24.02;;;17.25;;
28629;SDS011;15817;42.130;24.762;2024-01-06T12:43:13;27.25;;;18.52;;
28629;SDS011;15817;42.130;24.762;2024-01-06T12:46:16;28.70;;;19.75;;
28629;SDS011;15817;42.130;24.762;2024-01-06T12:49:00;25.42;;;17.77;;
28629;SDS011;15817;42.130;24.762;2024-01-06T12:51:27;22.63;;;16.25;;
28629;SDS011;15817;42.130;24.762;2024-01-06T12:54:01;21.17;;;15.45;;
28629;SDS011;15817;42.130;24.762;2024-01-06T12:56:38;26.13;;;16.05;;
28629;SDS011;15817;42.130;24.762;2024-01-06T12:59:13;28.58;;;15.50;;
28629;SDS011;15817;42.130;24.762;2024-01-06T13:01:42;19.83;;;13.95;;
28629;SDS011;15817;42.130;24.762;2024-01-06T13:04:13;22.80;;;13.40;;
28629;SDS011;15817;42.130;24.762;2024-01-06T13:06:46;20.10;;;14.60;;
28629;SDS011;15817;42.130;24.762;2024-01-06T13:09:15;19.20;;;12.93;;
28629;SDS011;15817;42.130;24.762;2024-01-06T13:11:42;19.55;;;13.20;;
28629;SDS011;15817;42.130;24.762;2024-01-06T13:14:21;18.40;;;12.85;;
28629;SDS011;15817;42.130;24.762;2024-01-06T13:16:47;22.73;;;14.65;;
28629;SDS011;15817;42.130;24.762;2024-01-06T13:19:19;20.65;;;14.23;;
28629;SDS011;15817;42.130;24.762;2024-01-06T13:21:57;19.80;;;12.73;;
28629;SDS011;15817;42.130;24.762;2024-01-06T13:24:28;23.95;;;12.23;;
28629;SDS011;15817;42.130;24.762;2024-01-06T13:27:04;22.98;;;12.07;;
28629;SDS011;15817;42.130;24.762;2024-01-06T13:29:36;21.95;;;11.23;;
28629;SDS011;15817;42.130;24.762;2024-01-06T13:32:11;22.85;;;12.65;;
28629;SDS011;15817;42.130;24.762;2024-01-06T13:34:48;16.73;;;10.60;;
28629;SDS011;15817;42.130;24.762;2024-01-06T13:37:19;15.35;;;9.95;;
28629;SDS011;15817;42.130;24.762;2024-01-06T13:39:47;15.48;;;10.50;;
28629;SDS011;15817;42.130;24.762;2024-01-06T13:42:22;15.02;;;10.43;;
28629;SDS011;15817;42.130;24.762;2024-01-06T13:44:51;14.45;;;10.50;;
28629;SDS011;15817;42.130;24.762;2024-01-06T13:47:28;15.45;;;9.68;;
28629;SDS011;15817;42.130;24.762;2024-01-06T13:49:56;17.33;;;10.65;;
28629;SDS011;15817;42.130;24.762;2024-01-06T13:52:30;18.35;;;10.80;;
28629;SDS011;15817;42.130;24.762;2024-01-06T13:55:04;18.40;;;10.98;;
28629;SDS011;15817;42.130;24.762;2024-01-06T13:57:42;13.45;;;9.45;;
28629;SDS011;15817;42.130;24.762;2024-01-06T14:00:14;15.13;;;9.75;;
28629;SDS011;15817;42.130;24.762;2024-01-06T14:02:48;16.67;;;10.57;;
28629;SDS011;15817;42.130;24.762;2024-01-06T14:05:24;12.38;;;8.43;;
28629;SDS011;15817;42.130;24.762;2024-01-06T14:07:56;17.83;;;7.75;;
28629;SDS011;15817;42.130;24.762;2024-01-06T14:10:32;14.00;;;7.53;;
28629;SDS011;15817;42.130;24.762;2024-01-06T14:13:08;11.85;;;7.97;;
28629;SDS011;15817;42.130;24.762;2024-01-06T14:15:34;14.13;;;7.95;;
28629;SDS011;15817;42.130;24.762;2024-01-06T14:18:23;10.27;;;7.38;;
28629;SDS011;15817;42.130;24.762;2024-01-06T14:26:57;12.55;;;7.97;;
28629;SDS011;15817;42.130;24.762;2024-01-06T14:29:35;13.50;;;8.05;;
28629;SDS011;15817;42.130;24.762;2024-01-06T14:32:14;14.32;;;7.90;;
28629;SDS011;15817;42.130;24.762;2024-01-06T14:35:03;14.23;;;8.02;;
28629;SDS011;15817;42.130;24.762;2024-01-06T14:37:40;13.25;;;8.82;;
28629;SDS011;15817;42.130;24.762;2024-01-06T14:40:09;12.73;;;8.05;;
28629;SDS011;15817;42.130;24.762;2024-01-06T14:42:53;16.48;;;9.45;;